createdAt,value
2018-09-12T00:00:57.740Z,20.12
2018-09-12T00:03:26.061Z,20.13
2018-09-12T00:05:54.671Z,20.12
2018-09-12T00:08:25.201Z,20.10
2018-09-12T00:10:53.864Z,20.10
2018-09-12T00:13:22.273Z,20.09
2018-09-12T00:15:50.693Z,20.08
2018-09-12T00:18:19.155Z,20.08
2018-09-12T00:20:47.597Z,20.06
2018-09-12T00:23:16.064Z,20.06
2018-09-12T00:25:44.469Z,20.05
2018-09-12T00:28:12.974Z,20.03
2018-09-12T00:30:41.417Z,20.04
2018-09-12T00:33:09.747Z,20.04
2018-09-12T00:35:38.248Z,20.03
2018-09-12T00:38:06.943Z,20.04
2018-09-12T00:40:35.349Z,20.04
2018-09-12T00:43:03.697Z,20.03
2018-09-12T00:45:32.204Z,20.03
2018-09-12T00:48:00.632Z,20.05
2018-09-12T00:50:29.050Z,20.05
2018-09-12T00:52:57.464Z,20.04
2018-09-12T00:55:25.823Z,20.05
2018-09-12T00:57:54.303Z,20.02
2018-09-12T01:00:23.046Z,20.01
2018-09-12T01:02:51.391Z,20.03
2018-09-12T01:05:19.872Z,20.03
2018-09-12T01:07:49.612Z,20.05
2018-09-12T01:10:17.988Z,20.05
2018-09-12T01:12:46.502Z,20.03
2018-09-12T01:15:14.991Z,20.01
2018-09-12T01:17:43.509Z,19.99
2018-09-12T01:20:11.898Z,19.99
2018-09-12T01:22:40.200Z,19.97
2018-09-12T01:25:08.776Z,19.96
2018-09-12T01:27:37.496Z,19.99
2018-09-12T01:30:09.340Z,19.97
2018-09-12T01:32:38.286Z,19.96
2018-09-12T01:35:07.462Z,19.96
2018-09-12T01:37:35.983Z,19.97
2018-09-12T01:40:05.691Z,19.96
2018-09-12T01:42:33.991Z,19.97
2018-09-12T01:45:04.065Z,19.96
2018-09-12T01:47:32.460Z,19.96
2018-09-12T01:50:00.851Z,19.97
2018-09-12T01:52:29.286Z,19.99
2018-09-12T01:54:57.696Z,19.99
2018-09-12T01:57:26.070Z,20.01
2018-09-12T01:59:54.770Z,20.03
2018-09-12T02:02:23.153Z,20.03
2018-09-12T02:04:51.525Z,20.01
2018-09-12T02:07:20.081Z,19.99
2018-09-12T02:09:48.432Z,19.99
2018-09-12T02:12:16.913Z,19.98
2018-09-12T02:14:45.290Z,20.00
2018-09-12T02:17:13.752Z,20.00
2018-09-12T02:19:42.295Z,20.01
2018-09-12T02:22:10.743Z,20.01
2018-09-12T02:24:39.515Z,20.01
2018-09-12T02:27:09.161Z,19.99
2018-09-12T02:29:37.553Z,19.96
2018-09-12T02:32:06.711Z,19.93
2018-09-12T02:34:35.159Z,19.93
2018-09-12T02:37:05.347Z,19.95
2018-09-12T02:42:00.932Z,19.89
2018-09-12T02:44:29.319Z,19.88
2018-09-12T02:46:57.856Z,19.86
2018-09-12T02:49:26.308Z,19.88
2018-09-12T02:51:54.689Z,19.89
2018-09-12T02:54:23.089Z,19.90
2018-09-12T02:56:51.480Z,19.90
2018-09-12T02:59:19.895Z,19.93
2018-09-12T03:01:48.200Z,19.94
2018-09-12T03:04:16.879Z,19.94
2018-09-12T03:06:45.413Z,19.95
2018-09-12T03:09:13.791Z,19.95
2018-09-12T03:11:42.075Z,19.96
2018-09-12T03:14:10.517Z,19.97
2018-09-12T03:16:38.889Z,19.96
2018-09-12T03:19:07.456Z,19.97
2018-09-12T03:21:35.950Z,19.97
2018-09-12T03:24:04.420Z,19.98
2018-09-12T03:26:32.889Z,19.97
2018-09-12T03:29:01.616Z,19.96
2018-09-12T03:31:30.073Z,19.95
2018-09-12T03:33:58.557Z,19.94
2018-09-12T03:36:27.083Z,19.93
2018-09-12T03:38:55.420Z,19.92
2018-09-12T03:41:23.710Z,19.88
2018-09-12T03:43:52.182Z,19.86
2018-09-12T03:46:20.580Z,19.82
2018-09-12T03:48:49.062Z,19.80
2018-09-12T03:51:17.752Z,19.75
2018-09-12T03:53:46.445Z,19.69
2018-09-12T03:56:14.769Z,19.67
2018-09-12T03:58:43.311Z,19.67
2018-09-12T04:01:11.764Z,19.66
2018-09-12T04:03:40.190Z,19.66
2018-09-12T04:06:08.722Z,19.62
2018-09-12T04:08:37.180Z,19.57
2018-09-12T04:11:05.931Z,19.53
2018-09-12T04:13:34.425Z,19.54
2018-09-12T04:16:03.841Z,19.54
2018-09-12T04:21:00.201Z,19.51
2018-09-12T04:23:28.602Z,19.49
2018-09-12T04:25:56.970Z,19.49
2018-09-12T04:28:26.350Z,19.50
2018-09-12T04:30:54.807Z,19.51
2018-09-12T04:33:23.150Z,19.52
2018-09-12T04:35:51.479Z,19.53
2018-09-12T04:38:20.067Z,19.54
2018-09-12T04:40:48.703Z,19.52
2018-09-12T04:43:18.703Z,19.53
2018-09-12T04:45:47.145Z,19.47
2018-09-12T04:48:15.957Z,19.45
2018-09-12T04:50:44.506Z,19.47
2018-09-12T04:53:12.916Z,19.49
2018-09-12T04:55:41.307Z,19.51
2018-09-12T04:58:09.694Z,19.51
2018-09-12T05:00:38.108Z,19.48
2018-09-12T05:03:07.404Z,19.47
2018-09-12T05:05:35.832Z,19.45
2018-09-12T05:08:05.018Z,19.44
2018-09-12T05:10:33.387Z,19.44
2018-09-12T05:13:02.139Z,19.47
2018-09-12T05:15:31.237Z,19.49
2018-09-12T05:17:59.589Z,19.50
2018-09-12T05:20:28.075Z,19.50
2018-09-12T05:22:56.674Z,19.50
2018-09-12T05:25:25.662Z,19.49
2018-09-12T05:30:21.733Z,19.46
2018-09-12T05:32:51.870Z,19.46
2018-09-12T05:35:20.584Z,19.44
2018-09-12T05:37:49.025Z,19.45
2018-09-12T05:40:17.442Z,19.47
2018-09-12T05:42:45.917Z,19.50
2018-09-12T05:45:14.489Z,19.51
2018-09-12T05:47:42.829Z,19.50
2018-09-12T05:50:11.509Z,19.51
2018-09-12T05:52:40.004Z,19.51
2018-09-12T05:55:08.524Z,19.52
2018-09-12T05:57:37.536Z,19.52
2018-09-12T06:00:06.905Z,19.50
2018-09-12T06:02:35.322Z,19.48
2018-09-12T06:05:03.808Z,19.47
2018-09-12T06:07:32.267Z,19.49
2018-09-12T06:10:01.044Z,19.50
2018-09-12T06:12:29.526Z,19.52
2018-09-12T06:14:57.982Z,19.49
2018-09-12T06:17:26.379Z,19.47
2018-09-12T06:19:54.965Z,19.48
2018-09-12T06:22:23.431Z,19.49
2018-09-12T06:24:51.889Z,19.51
2018-09-12T06:27:20.409Z,19.50
2018-09-12T06:29:48.756Z,19.49
2018-09-12T06:32:17.138Z,19.49
2018-09-12T06:34:45.466Z,19.50
2018-09-12T06:37:13.822Z,19.48
2018-09-12T06:39:42.293Z,19.47
2018-09-12T06:42:10.623Z,19.43
2018-09-12T06:44:39.287Z,19.41
2018-09-12T06:47:08.431Z,19.43
2018-09-12T06:49:37.005Z,19.45
2018-09-12T06:52:09.635Z,19.45
2018-09-12T06:54:37.954Z,19.47
2018-09-12T06:57:06.346Z,19.48
2018-09-12T06:59:34.839Z,19.52
2018-09-12T07:02:03.325Z,19.54
2018-09-12T07:04:31.847Z,19.58
2018-09-12T07:07:00.827Z,19.58
2018-09-12T07:09:29.219Z,19.58
2018-09-12T07:11:57.860Z,19.57
2018-09-12T07:14:26.321Z,19.58
2018-09-12T07:16:54.677Z,19.61
2018-09-12T07:19:23.315Z,19.62
2018-09-12T07:21:51.805Z,19.63
2018-09-12T07:24:20.255Z,19.62
2018-09-12T07:26:48.829Z,19.61
2018-09-12T07:29:17.320Z,19.61
2018-09-12T07:31:45.826Z,19.64
2018-09-12T07:34:14.177Z,19.67
2018-09-12T07:36:42.887Z,19.70
2018-09-12T07:39:13.066Z,19.71
2018-09-12T07:41:41.606Z,19.73
2018-09-12T07:44:10.125Z,19.76
2018-09-12T07:46:38.717Z,19.77
2018-09-12T07:49:07.984Z,19.82
2018-09-12T07:51:36.497Z,19.81
2018-09-12T07:54:05.042Z,19.82
2018-09-12T07:56:33.644Z,19.85
2018-09-12T07:59:02.208Z,19.83
2018-09-12T08:01:30.474Z,19.65
2018-09-12T08:03:58.822Z,19.41
2018-09-12T08:06:27.264Z,19.11
2018-09-12T08:08:55.786Z,18.77
2018-09-12T08:11:24.105Z,18.49
2018-09-12T08:13:52.493Z,18.23
2018-09-12T08:16:20.960Z,18.03
2018-09-12T08:18:49.337Z,17.92
2018-09-12T08:21:17.673Z,17.79
2018-09-12T08:23:46.159Z,17.65
2018-09-12T08:26:14.546Z,17.59
2018-09-12T08:28:42.903Z,17.54
2018-09-12T08:31:11.292Z,17.52
2018-09-12T08:33:39.860Z,17.47
2018-09-12T08:36:09.076Z,17.45
2018-09-12T08:38:37.672Z,17.39
2018-09-12T08:41:07.047Z,17.36
2018-09-12T08:43:35.510Z,17.27
2018-09-12T08:46:04.978Z,17.18
2018-09-12T08:48:33.554Z,17.13
2018-09-12T08:51:02.234Z,17.13
2018-09-12T08:53:30.647Z,17.18
2018-09-12T08:55:59.064Z,17.25
2018-09-12T08:58:27.458Z,17.31
2018-09-12T09:00:55.833Z,17.33
2018-09-12T09:03:24.187Z,17.30
2018-09-12T09:05:52.602Z,17.31
2018-09-12T09:08:21.088Z,17.30
2018-09-12T09:10:49.595Z,17.29
2018-09-12T09:13:17.959Z,17.23
2018-09-12T09:15:46.253Z,17.18
2018-09-12T09:18:14.961Z,17.17
2018-09-12T09:20:43.610Z,17.16
2018-09-12T09:23:12.132Z,17.14
2018-09-12T09:25:40.545Z,17.06
2018-09-12T09:28:09.336Z,17.01
2018-09-12T09:30:37.791Z,16.93
2018-09-12T09:33:06.452Z,16.87
2018-09-12T09:35:34.965Z,16.80
2018-09-12T09:38:03.345Z,16.77
2018-09-12T09:40:31.769Z,16.75
2018-09-12T09:43:00.222Z,16.76
2018-09-12T09:45:28.699Z,16.74
2018-09-12T09:47:57.192Z,16.73
2018-09-12T09:50:25.719Z,16.75
2018-09-12T09:52:54.229Z,16.78
2018-09-12T09:55:23.501Z,16.78
2018-09-12T09:57:51.875Z,16.76
2018-09-12T10:00:25.667Z,16.76
2018-09-12T10:02:59.285Z,16.79
2018-09-12T10:05:33.118Z,16.88
2018-09-12T10:08:06.914Z,17.02
2018-09-12T10:10:35.509Z,17.16
2018-09-12T10:13:04.913Z,17.28
2018-09-12T10:15:33.284Z,17.37
2018-09-12T10:18:01.729Z,17.37
2018-09-12T10:20:30.180Z,17.36
2018-09-12T10:23:00.253Z,17.37
2018-09-12T10:25:29.007Z,17.37
2018-09-12T10:27:57.313Z,17.39
2018-09-12T10:30:26.236Z,17.38
2018-09-12T10:35:21.900Z,17.33
2018-09-12T10:37:50.321Z,17.29
2018-09-12T10:40:18.724Z,17.26
2018-09-12T10:42:47.112Z,17.22
2018-09-12T10:45:15.499Z,17.22
2018-09-12T10:47:43.892Z,17.27
2018-09-12T10:50:12.232Z,17.32
2018-09-12T10:52:40.917Z,17.36
2018-09-12T10:55:09.460Z,17.40
2018-09-12T10:57:37.796Z,17.45
2018-09-12T11:00:08.914Z,17.51
2018-09-12T11:02:37.581Z,17.57
2018-09-12T11:05:06.909Z,17.60
2018-09-12T11:07:35.365Z,17.64
2018-09-12T11:10:03.804Z,17.69
2018-09-12T11:12:32.349Z,17.77
2018-09-12T11:15:00.693Z,17.83
2018-09-12T11:17:28.972Z,17.87
2018-09-12T11:19:57.378Z,17.93
2018-09-12T11:22:25.693Z,17.97
2018-09-12T11:24:54.199Z,17.97
2018-09-12T11:27:22.650Z,17.97
2018-09-12T11:29:50.996Z,17.97
2018-09-12T11:32:19.426Z,17.99
2018-09-12T11:34:47.948Z,18.02
2018-09-12T11:37:16.642Z,18.00
2018-09-12T11:39:45.049Z,18.01
2018-09-12T11:42:13.453Z,17.98
2018-09-12T11:44:41.937Z,17.98
2018-09-12T11:47:10.450Z,17.98
2018-09-12T11:49:39.477Z,17.98
2018-09-12T11:52:08.617Z,17.99
2018-09-12T11:54:37.156Z,17.97
2018-09-12T11:57:06.164Z,17.97
2018-09-12T11:59:34.832Z,17.95
2018-09-12T12:02:03.319Z,17.92
2018-09-12T12:04:31.704Z,17.88
2018-09-12T12:07:00.197Z,17.85
2018-09-12T12:09:28.557Z,17.83
2018-09-12T12:11:56.944Z,17.87
2018-09-12T12:14:26.327Z,17.94
2018-09-12T12:16:54.842Z,17.98
2018-09-12T12:19:24.138Z,17.98
2018-09-12T12:21:52.422Z,17.97
2018-09-12T12:24:20.936Z,17.96
2018-09-12T12:26:49.958Z,17.94
2018-09-12T12:29:18.468Z,17.96
2018-09-12T12:31:47.090Z,17.98
2018-09-12T12:34:15.639Z,18.01
2018-09-12T12:36:44.112Z,18.02
2018-09-12T12:39:12.924Z,18.02
2018-09-12T12:41:42.245Z,18.00
2018-09-12T12:44:11.029Z,17.98
2018-09-12T12:46:39.478Z,17.96
2018-09-12T12:49:08.430Z,17.96
2018-09-12T12:51:36.810Z,17.94
2018-09-12T12:54:05.494Z,17.94
2018-09-12T12:56:33.908Z,17.94
2018-09-12T12:59:02.572Z,17.93
2018-09-12T13:01:31.368Z,17.91
2018-09-12T13:03:59.798Z,17.87
2018-09-12T13:06:28.154Z,17.93
2018-09-12T13:08:57.628Z,17.95
2018-09-12T13:11:26.962Z,18.01
2018-09-12T13:13:55.301Z,18.06
2018-09-12T13:16:23.661Z,18.07
2018-09-12T13:18:52.052Z,18.07
2018-09-12T13:21:20.445Z,18.03
2018-09-12T13:23:48.938Z,18.00
2018-09-12T13:26:17.420Z,17.96
2018-09-12T13:28:45.902Z,17.89
2018-09-12T13:31:14.849Z,17.87
2018-09-12T13:33:43.477Z,17.83
2018-09-12T13:36:11.985Z,17.78
2018-09-12T13:38:40.405Z,17.68
2018-09-12T13:41:08.862Z,17.47
2018-09-12T13:43:37.307Z,17.23
2018-09-12T13:46:05.875Z,17.06
2018-09-12T13:48:34.306Z,16.92
2018-09-12T13:51:02.755Z,16.86
2018-09-12T13:53:31.125Z,16.80
2018-09-12T13:55:59.407Z,16.79
2018-09-12T13:58:27.908Z,16.81
2018-09-12T14:00:56.319Z,16.81
2018-09-12T14:03:24.733Z,16.78
2018-09-12T14:05:53.209Z,16.78
2018-09-12T14:08:21.810Z,16.80
2018-09-12T14:10:50.872Z,16.82
2018-09-12T14:13:19.437Z,16.82
2018-09-12T14:15:47.921Z,16.85
2018-09-12T14:18:16.433Z,16.89
2018-09-12T14:20:46.844Z,16.92
2018-09-12T14:23:15.380Z,16.90
2018-09-12T14:25:43.857Z,16.89
2018-09-12T14:28:12.646Z,16.90
2018-09-12T14:30:41.695Z,16.91
2018-09-12T14:33:10.333Z,16.93
2018-09-12T14:35:39.199Z,16.98
2018-09-12T14:38:08.217Z,17.03
2018-09-12T14:40:36.728Z,17.10
2018-09-12T14:43:05.235Z,17.17
2018-09-12T14:45:33.814Z,17.28
2018-09-12T14:48:02.601Z,17.37
2018-09-12T14:50:31.078Z,17.45
2018-09-12T14:53:00.156Z,17.43
2018-09-12T14:55:28.767Z,17.44
2018-09-12T14:57:57.169Z,17.43
2018-09-12T15:00:27.589Z,17.41
2018-09-12T15:02:57.646Z,17.41
2018-09-12T15:05:26.401Z,17.40
2018-09-12T15:07:55.707Z,17.42
2018-09-12T15:10:24.642Z,17.43
2018-09-12T15:12:53.530Z,17.46
2018-09-12T15:15:22.070Z,17.51
2018-09-12T15:17:50.426Z,17.54
2018-09-12T15:20:18.841Z,17.55
2018-09-12T15:22:47.536Z,17.57
2018-09-12T15:25:16.628Z,17.58
2018-09-12T15:27:45.190Z,17.58
2018-09-12T15:30:13.772Z,17.57
2018-09-12T15:32:42.396Z,17.58
2018-09-12T15:35:11.884Z,17.58
2018-09-12T15:37:40.447Z,17.60
2018-09-12T15:40:08.962Z,17.62
2018-09-12T15:42:37.445Z,17.66
2018-09-12T15:45:05.967Z,17.73
2018-09-12T15:47:34.565Z,17.78
2018-09-12T15:50:03.168Z,17.82
2018-09-12T15:52:31.516Z,17.83
2018-09-12T15:55:00.108Z,17.85
2018-09-12T15:57:28.469Z,17.84
2018-09-12T15:59:57.278Z,17.81
2018-09-12T16:02:25.661Z,17.76
2018-09-12T16:04:54.079Z,17.71
2018-09-12T16:07:22.597Z,17.70
2018-09-12T16:09:50.934Z,17.70
2018-09-12T16:12:19.342Z,17.71
2018-09-12T16:14:47.646Z,17.67
2018-09-12T16:17:16.056Z,17.66
2018-09-12T16:19:44.505Z,17.64
2018-09-12T16:22:13.163Z,17.62
2018-09-12T16:24:41.683Z,17.60
2018-09-12T16:27:10.057Z,17.57
2018-09-12T16:29:38.369Z,17.54
2018-09-12T16:32:07.198Z,17.51
2018-09-12T16:34:35.621Z,17.50
2018-09-12T16:37:04.056Z,17.50
2018-09-12T16:39:33.204Z,17.48
2018-09-12T16:42:01.717Z,17.47
2018-09-12T16:44:30.174Z,17.48
2018-09-12T16:46:58.539Z,17.48
2018-09-12T16:49:27.063Z,17.46
2018-09-12T16:51:55.479Z,17.45
2018-09-12T16:54:24.053Z,17.45
2018-09-12T16:56:52.599Z,17.45
2018-09-12T16:59:21.136Z,17.45
2018-09-12T17:01:49.579Z,17.42
2018-09-12T17:04:18.086Z,17.42
2018-09-12T17:06:46.573Z,17.41
2018-09-12T17:09:15.184Z,17.39
2018-09-12T17:11:43.760Z,17.38
2018-09-12T17:14:12.496Z,17.36
2018-09-12T17:16:41.753Z,17.35
2018-09-12T17:19:10.122Z,17.29
2018-09-12T17:21:38.672Z,17.21
2018-09-12T17:24:08.267Z,17.14
2018-09-12T17:26:36.786Z,17.08
2018-09-12T17:29:05.303Z,17.07
2018-09-12T17:31:33.801Z,17.05
2018-09-12T17:34:02.236Z,17.00
2018-09-12T17:36:31.501Z,16.99
2018-09-12T17:38:59.950Z,16.95
2018-09-12T17:41:28.741Z,16.89
2018-09-12T17:43:57.172Z,16.85
2018-09-12T17:46:25.697Z,16.83
2018-09-12T17:48:54.067Z,16.79
2018-09-12T17:51:22.548Z,16.77
2018-09-12T17:53:51.163Z,16.73
2018-09-12T17:56:19.785Z,16.70
2018-09-12T17:58:48.132Z,16.68
2018-09-12T18:01:16.769Z,16.66
2018-09-12T18:03:45.605Z,16.62
2018-09-12T18:06:14.744Z,16.59
2018-09-12T18:08:43.342Z,16.56
2018-09-12T18:11:11.897Z,16.53
2018-09-12T18:13:40.423Z,16.53
2018-09-12T18:16:09.056Z,16.51
2018-09-12T18:18:37.610Z,16.49
2018-09-12T18:21:06.223Z,16.49
2018-09-12T18:23:34.653Z,16.48
2018-09-12T18:26:03.145Z,16.45
2018-09-12T18:28:32.301Z,16.43
2018-09-12T18:31:01.160Z,16.41
2018-09-12T18:33:29.899Z,16.40
2018-09-12T18:35:58.606Z,16.40
2018-09-12T18:38:27.504Z,16.40
2018-09-12T18:40:56.266Z,16.40
2018-09-12T18:43:25.289Z,16.40
2018-09-12T18:45:53.861Z,16.38
2018-09-12T18:48:22.322Z,16.37
2018-09-12T18:50:50.906Z,16.36
2018-09-12T18:53:19.307Z,16.35
2018-09-12T18:55:47.952Z,16.31
2018-09-12T18:58:16.674Z,16.30
2018-09-12T19:00:45.339Z,16.26
2018-09-12T19:03:13.897Z,16.21
2018-09-12T19:05:42.315Z,16.18
2018-09-12T19:08:11.593Z,16.15
2018-09-12T19:10:40.015Z,16.14
2018-09-12T19:13:08.596Z,16.11
2018-09-12T19:15:37.033Z,16.08
2018-09-12T19:18:06.348Z,16.07
2018-09-12T19:20:34.883Z,16.04
2018-09-12T19:23:03.505Z,16.02
2018-09-12T19:25:31.989Z,15.99
2018-09-12T19:28:00.400Z,15.97
2018-09-12T19:30:29.775Z,15.94
2018-09-12T19:32:58.973Z,15.93
2018-09-12T19:35:32.258Z,15.92
2018-09-12T19:38:00.696Z,15.91
2018-09-12T19:40:30.246Z,15.87
2018-09-12T19:42:58.616Z,15.85
2018-09-12T19:45:27.393Z,15.84
2018-09-12T19:47:56.108Z,15.82
2018-09-12T19:50:25.129Z,15.79
2018-09-12T19:52:53.522Z,15.79
2018-09-12T19:55:22.091Z,15.78
2018-09-12T19:57:51.385Z,15.76
2018-09-12T20:00:20.891Z,15.75
2018-09-12T20:02:49.346Z,15.75
2018-09-12T20:05:17.881Z,15.74
2018-09-12T20:07:46.804Z,15.73
2018-09-12T20:10:15.811Z,15.73
2018-09-12T20:12:44.326Z,15.72
2018-09-12T20:15:12.815Z,15.72
2018-09-12T20:17:41.485Z,15.70
2018-09-12T20:20:10.139Z,15.65
2018-09-12T20:22:38.617Z,15.62
2018-09-12T20:25:07.047Z,15.61
2018-09-12T20:27:35.418Z,15.61
2018-09-12T20:30:04.055Z,15.61
2018-09-12T20:32:32.426Z,15.61
2018-09-12T20:35:01.058Z,15.61
2018-09-12T20:37:29.881Z,15.59
2018-09-12T20:39:58.471Z,15.57
2018-09-12T20:42:26.828Z,15.56
2018-09-12T20:44:56.039Z,15.57
2018-09-12T20:47:24.526Z,15.56
2018-09-12T20:49:52.884Z,15.55
2018-09-12T20:52:21.342Z,15.54
2018-09-12T20:54:49.753Z,15.52
2018-09-12T20:57:18.299Z,15.51
2018-09-12T20:59:46.599Z,15.53
2018-09-12T21:02:15.108Z,15.53
2018-09-12T21:04:44.196Z,15.53
2018-09-12T21:07:12.632Z,15.51
2018-09-12T21:09:41.028Z,15.51
2018-09-12T21:12:09.480Z,15.48
2018-09-12T21:14:37.942Z,15.47
2018-09-12T21:17:06.505Z,15.48
2018-09-12T21:19:34.994Z,15.48
2018-09-12T21:22:03.610Z,15.48
2018-09-12T21:24:32.536Z,15.48
2018-09-12T21:27:01.116Z,15.47
2018-09-12T21:29:29.836Z,15.43
2018-09-12T21:31:58.492Z,15.42
2018-09-12T21:34:27.530Z,15.43
2018-09-12T21:36:56.043Z,15.44
2018-09-12T21:39:24.545Z,15.46
2018-09-12T21:41:52.861Z,15.46
2018-09-12T21:44:21.212Z,15.45
2018-09-12T21:46:49.606Z,15.46
2018-09-12T21:49:17.959Z,15.46
2018-09-12T21:51:46.338Z,15.46
2018-09-12T21:54:14.773Z,15.43
2018-09-12T21:56:43.217Z,15.46
2018-09-12T21:59:11.485Z,15.43
2018-09-12T22:01:39.973Z,15.42
2018-09-12T22:04:08.387Z,15.43
2018-09-12T22:06:36.796Z,15.44
2018-09-12T22:09:08.818Z,15.41
2018-09-12T22:11:37.620Z,15.42
2018-09-12T22:14:06.212Z,15.42
2018-09-12T22:16:34.683Z,15.44
2018-09-12T22:19:04.504Z,15.45
2018-09-12T22:21:33.023Z,15.47
2018-09-12T22:24:01.660Z,15.48
2018-09-12T22:26:30.341Z,15.47
2018-09-12T22:28:58.690Z,15.44
2018-09-12T22:31:27.011Z,15.44
2018-09-12T22:33:55.388Z,15.43
2018-09-12T22:36:23.774Z,15.41
2018-09-12T22:38:52.354Z,15.40
2018-09-12T22:41:20.758Z,15.40
2018-09-12T22:43:49.261Z,15.41
2018-09-12T22:46:17.996Z,15.42
2018-09-12T22:48:46.462Z,15.43
2018-09-12T22:51:15.418Z,15.44
2018-09-12T22:53:43.821Z,15.42
2018-09-12T22:56:12.334Z,15.40
2018-09-12T22:58:41.674Z,15.39
2018-09-12T23:01:10.179Z,15.37
2018-09-12T23:03:38.484Z,15.37
2018-09-12T23:06:07.699Z,15.39
2018-09-12T23:08:36.374Z,15.39
2018-09-12T23:11:04.791Z,15.40
2018-09-12T23:13:33.112Z,15.40
2018-09-12T23:16:01.578Z,15.42
2018-09-12T23:18:30.081Z,15.42
2018-09-12T23:20:58.554Z,15.41
2018-09-12T23:23:27.749Z,15.39
2018-09-12T23:25:56.078Z,15.40
2018-09-12T23:28:24.426Z,15.40
2018-09-12T23:30:52.865Z,15.41
2018-09-12T23:33:21.304Z,15.41
2018-09-12T23:35:49.677Z,15.40
2018-09-12T23:38:18.208Z,15.39
2018-09-12T23:40:46.572Z,15.38
2018-09-12T23:43:15.159Z,15.38
2018-09-12T23:45:43.578Z,15.35
2018-09-12T23:48:12.570Z,15.34
2018-09-12T23:50:40.968Z,15.35
2018-09-12T23:53:09.736Z,15.34
2018-09-12T23:55:38.126Z,15.32
2018-09-12T23:58:07.045Z,15.29
